Time;durP1;ratioP1;P1;durP2;ratioP2;P2;SDS_P1;SDS_P2;PMS_P1;PMS_P2;Temp;Humidity;BMP_temperature;BMP_pressure;BME280_temperature;BME280_humidity;BME280_pressure;Samples;Min_cycle;Max_cycle;Signal;HPM_P1;HPM_P2
2021/07/05 00:00:24;;;;;;;11.70;9.30;;;16.10;99.90;;;;;;4800106;29;20498;-76
2021/07/05 00:02:51;;;;;;;10.38;9.32;;;16.10;99.90;;;;;;4791600;29;20060;-76
2021/07/05 00:05:18;;;;;;;10.07;9.18;;;16.00;99.90;;;;;;4793058;29;20135;-76
2021/07/05 00:07:47;;;;;;;9.52;8.65;;;16.10;99.90;;;;;;4776621;29;20046;-76
2021/07/05 00:10:18;;;;;;;9.23;8.05;;;16.00;99.90;;;;;;4787427;29;20055;-76
2021/07/05 00:12:47;;;;;;;9.32;8.10;;;16.00;99.90;;;;;;4803163;29;20816;-74
2021/07/05 00:15:19;;;;;;;8.70;7.82;;;16.00;99.90;;;;;;4790945;29;20050;-75
2021/07/05 00:17:48;;;;;;;9.23;8.38;;;16.00;99.90;;;;;;4789297;29;20054;-74
2021/07/05 00:20:15;;;;;;;8.60;7.55;;;16.00;99.90;;;;;;4789315;29;20046;-75
2021/07/05 00:22:42;;;;;;;9.13;8.23;;;16.00;99.90;;;;;;4789326;29;20651;-75
2021/07/05 00:25:09;;;;;;;9.05;8.25;;;16.00;99.90;;;;;;4788440;29;20046;-76
2021/07/05 00:27:36;;;;;;;9.15;8.35;;;16.00;99.90;;;;;;4790299;29;20030;-76
2021/07/05 00:30:04;;;;;;;8.57;7.78;;;16.10;99.90;;;;;;4790669;29;20049;-76
2021/07/05 00:32:30;;;;;;;10.77;8.93;;;16.20;99.90;;;;;;4803628;29;20065;-76
2021/07/05 00:35:00;;;;;;;9.40;7.45;;;16.20;99.90;;;;;;4760400;29;20057;-76
2021/07/05 00:37:27;;;;;;;8.27;7.47;;;16.20;99.90;;;;;;4789135;29;20038;-76
2021/07/05 00:39:53;;;;;;;7.90;7.22;;;16.30;99.90;;;;;;4788766;29;20042;-76
2021/07/05 00:42:20;;;;;;;7.70;7.10;;;16.30;99.90;;;;;;4791226;29;20054;-76
2021/07/05 00:44:46;;;;;;;6.47;5.88;;;16.30;99.90;;;;;;4788345;29;20529;-76
2021/07/05 00:47:13;;;;;;;7.63;6.93;;;16.40;99.90;;;;;;4807002;29;20054;-76
2021/07/05 00:49:39;;;;;;;7.53;6.82;;;16.30;99.90;;;;;;4774024;29;20053;-76
2021/07/05 00:52:06;;;;;;;6.15;5.65;;;16.30;99.90;;;;;;4799047;29;20055;-76
2021/07/05 00:54:33;;;;;;;8.52;5.60;;;16.40;99.90;;;;;;4791137;29;20055;-76
2021/07/05 00:57:00;;;;;;;7.78;6.32;;;16.40;99.90;;;;;;4772747;29;20042;-76
2021/07/05 00:59:27;;;;;;;6.03;5.43;;;16.40;99.90;;;;;;4788667;29;20043;-76
2021/07/05 01:01:54;;;;;;;5.28;4.88;;;16.40;99.90;;;;;;4789211;29;20039;-76
2021/07/05 01:04:20;;;;;;;5.88;5.15;;;16.40;99.90;;;;;;4766875;29;20049;-76
2021/07/05 01:06:46;;;;;;;5.43;4.95;;;16.40;99.90;;;;;;4789870;29;20046;-76
2021/07/05 01:09:13;;;;;;;5.55;5.15;;;16.50;99.90;;;;;;4786621;29;20045;-76
2021/07/05 01:11:39;;;;;;;6.20;5.30;;;16.50;99.90;;;;;;4806714;29;20050;-76
2021/07/05 01:14:06;;;;;;;6.35;5.05;;;16.50;99.90;;;;;;4775581;29;20050;-76
2021/07/05 01:16:32;;;;;;;6.38;4.93;;;16.40;99.90;;;;;;4801547;29;20038;-76
2021/07/05 01:18:58;;;;;;;5.93;5.43;;;16.40;99.90;;;;;;4787509;29;20069;-76
2021/07/05 01:21:25;;;;;;;6.97;5.30;;;16.40;99.90;;;;;;4764803;29;20047;-76
2021/07/05 01:23:51;;;;;;;5.75;5.25;;;16.50;99.90;;;;;;4788673;29;20047;-76
2021/07/05 01:26:18;;;;;;;8.52;5.70;;;16.50;99.90;;;;;;4804554;29;20047;-76
2021/07/05 01:28:44;;;;;;;6.15;5.55;;;16.50;99.90;;;;;;4787026;29;20053;-76
2021/07/05 01:31:10;;;;;;;7.40;5.00;;;16.50;99.90;;;;;;4775255;29;20050;-76
2021/07/05 01:33:37;;;;;;;5.78;4.70;;;16.60;99.90;;;;;;4790501;29;20050;-76
2021/07/05 01:36:04;;;;;;;5.10;4.60;;;16.60;99.90;;;;;;4770037;29;20125;-76
2021/07/05 01:38:30;;;;;;;5.20;4.55;;;16.60;99.90;;;;;;4784106;29;20054;-76
2021/07/05 01:41:00;;;;;;;5.55;4.70;;;16.70;99.90;;;;;;4773367;29;20038;-76
2021/07/05 01:43:28;;;;;;;4.20;3.80;;;16.60;99.90;;;;;;4787153;29;20049;-76
2021/07/05 01:45:55;;;;;;;5.45;4.13;;;16.60;99.90;;;;;;4797700;29;20511;-76
2021/07/05 01:48:21;;;;;;;4.85;4.32;;;16.60;99.90;;;;;;4787332;29;20049;-76
2021/07/05 01:50:48;;;;;;;4.95;3.33;;;16.50;99.90;;;;;;4788482;29;20053;-76
2021/07/05 01:53:14;;;;;;;5.63;2.92;;;16.50;99.90;;;;;;4790248;29;20046;-76
2021/07/05 01:55:41;;;;;;;4.30;3.30;;;16.50;99.90;;;;;;4785788;29;20624;-76
2021/07/05 01:58:08;;;;;;;3.97;3.58;;;16.40;99.90;;;;;;4786563;29;20043;-76
2021/07/05 02:00:40;;;;;;;4.95;3.70;;;16.40;99.90;;;;;;4784563;29;20030;-76
2021/07/05 02:03:07;;;;;;;4.30;3.57;;;16.30;99.90;;;;;;4769485;29;20043;-76
2021/07/05 02:05:34;;;;;;;3.60;3.30;;;16.20;99.90;;;;;;4784155;29;20458;-76
2021/07/05 02:08:00;;;;;;;4.13;3.72;;;16.30;99.90;;;;;;4787338;29;20035;-76
2021/07/05 02:10:29;;;;;;;3.92;3.60;;;16.30;99.90;;;;;;4788365;29;20045;-76
2021/07/05 02:12:57;;;;;;;4.05;2.85;;;16.40;99.90;;;;;;4796126;29;20043;-76
2021/07/05 02:15:25;;;;;;;6.45;3.03;;;16.40;99.90;;;;;;4803385;29;20046;-76
2021/07/05 02:17:52;;;;;;;3.40;2.80;;;16.50;99.90;;;;;;4788852;29;20212;-76
2021/07/05 02:20:22;;;;;;;4.72;3.25;;;16.50;99.90;;;;;;4806779;29;20054;-76
2021/07/05 02:22:51;;;;;;;6.85;4.53;;;16.50;99.90;;;;;;4773381;29;20067;-76
2021/07/05 02:25:22;;;;;;;3.33;3.03;;;16.50;99.90;;;;;;4788600;29;20057;-76
2021/07/05 02:27:49;;;;;;;4.82;2.70;;;16.50;99.90;;;;;;4800804;29;20051;-76
2021/07/05 02:30:19;;;;;;;5.05;2.78;;;16.50;99.90;;;;;;4801627;29;20493;-77
2021/07/05 02:32:47;;;;;;;4.22;2.58;;;16.40;99.90;;;;;;4806621;29;20053;-76
2021/07/05 02:35:16;;;;;;;4.03;3.00;;;16.40;99.90;;;;;;4802679;29;20394;-76
2021/07/05 02:37:44;;;;;;;6.03;3.80;;;16.30;99.90;;;;;;4801709;29;20049;-75
2021/07/05 02:40:13;;;;;;;3.13;2.80;;;16.30;99.90;;;;;;4798992;29;20038;-75
2021/07/05 02:42:40;;;;;;;8.00;3.92;;;16.30;99.90;;;;;;4781660;29;20073;-75
2021/07/05 02:45:10;;;;;;;5.47;2.97;;;16.40;99.90;;;;;;4801511;29;20042;-76
2021/07/05 02:47:36;;;;;;;5.50;2.58;;;16.40;99.90;;;;;;4784690;29;20050;-75
2021/07/05 02:50:06;;;;;;;5.45;2.70;;;16.40;99.90;;;;;;4798812;29;20047;-74
2021/07/05 02:52:32;;;;;;;5.00;2.95;;;16.40;99.90;;;;;;4798503;29;20042;-74
2021/07/05 02:54:59;;;;;;;4.50;2.78;;;16.50;99.90;;;;;;4768962;29;20420;-74
2021/07/05 02:57:31;;;;;;;4.30;2.67;;;16.50;99.90;;;;;;4798232;29;20042;-75
2021/07/05 03:00:01;;;;;;;;;;;16.50;99.90;;;;;;4769356;29;20046;-74
2021/07/05 03:02:30;;;;;;;3.30;2.58;;;16.50;99.90;;;;;;4785201;29;19921;-75
2021/07/05 03:04:58;;;;;;;3.45;2.38;;;16.50;99.90;;;;;;4804200;29;20035;-74
2021/07/05 03:07:25;;;;;;;3.20;2.35;;;16.50;99.90;;;;;;4797868;29;20035;-75
2021/07/05 03:09:52;;;;;;;3.35;2.85;;;16.50;99.90;;;;;;4796891;29;20046;-75
2021/07/05 03:12:19;;;;;;;4.75;4.32;;;16.50;99.90;;;;;;4782105;29;20280;-75
2021/07/05 03:14:45;;;;;;;6.72;4.93;;;16.50;99.90;;;;;;4783392;29;20146;-75
2021/07/05 03:17:12;;;;;;;4.80;4.40;;;16.50;99.90;;;;;;4798597;29;20042;-75
2021/07/05 03:19:40;;;;;;;4.75;4.25;;;16.50;99.90;;;;;;4766173;29;20062;-75
2021/07/05 03:22:07;;;;;;;9.50;6.15;;;16.50;99.90;;;;;;4786070;29;20046;-76
2021/07/05 03:24:34;;;;;;;6.45;5.85;;;16.50;99.90;;;;;;4802511;29;20034;-76
2021/07/05 03:27:00;;;;;;;8.23;5.65;;;16.60;99.90;;;;;;4775226;29;20043;-75
2021/07/05 03:29:27;;;;;;;7.45;5.07;;;16.60;99.90;;;;;;4805450;29;20027;-76
2021/07/05 03:31:53;;;;;;;6.72;6.18;;;16.60;99.90;;;;;;4786736;29;20043;-76
2021/07/05 03:34:20;;;;;;;5.97;5.38;;;16.60;99.90;;;;;;4789497;29;20062;-76
2021/07/05 03:36:46;;;;;;;6.78;5.28;;;16.60;99.90;;;;;;4769391;29;20055;-76
2021/07/05 03:39:12;;;;;;;8.98;7.53;;;16.60;99.90;;;;;;4755006;29;20056;-76
2021/07/05 03:41:39;;;;;;;6.75;6.20;;;16.70;99.90;;;;;;4775808;29;21033;-76
2021/07/05 03:44:05;;;;;;;7.30;6.70;;;16.70;99.90;;;;;;4769628;29;20043;-76
2021/07/05 03:46:32;;;;;;;8.48;5.88;;;16.70;99.90;;;;;;4783271;29;20097;-76
2021/07/05 03:48:58;;;;;;;6.65;6.05;;;16.70;99.90;;;;;;4799400;29;20450;-76
2021/07/05 03:51:25;;;;;;;6.30;5.75;;;16.80;99.90;;;;;;4801956;29;20042;-75
2021/07/05 03:53:51;;;;;;;7.90;7.20;;;16.80;99.90;;;;;;4791601;29;20059;-75
2021/07/05 03:56:18;;;;;;;6.82;4.70;;;16.80;99.90;;;;;;4781693;29;20047;-75
2021/07/05 03:58:44;;;;;;;6.70;5.13;;;16.80;99.90;;;;;;4804120;29;20068;-76
2021/07/05 04:01:10;;;;;;;6.82;5.28;;;16.80;99.90;;;;;;4808466;29;20045;-76
2021/07/05 04:03:37;;;;;;;10.85;6.45;;;16.70;99.90;;;;;;4748020;29;20055;-75
2021/07/05 04:06:03;;;;;;;10.23;6.05;;;16.70;99.90;;;;;;4782118;29;20059;-75
2021/07/05 04:08:32;;;;;;;7.90;4.75;;;16.60;99.90;;;;;;4788474;29;20039;-75
2021/07/05 04:10:59;;;;;;;10.63;5.15;;;16.60;99.90;;;;;;4805928;29;20050;-75
2021/07/05 04:13:28;;;;;;;5.32;4.07;;;16.50;99.90;;;;;;4791868;29;20407;-75
2021/07/05 04:15:55;;;;;;;4.78;3.25;;;16.40;99.90;;;;;;4805715;29;20039;-75
2021/07/05 04:18:21;;;;;;;9.18;3.95;;;16.40;99.90;;;;;;4803545;29;20039;-75
2021/07/05 04:20:48;;;;;;;8.20;2.50;;;16.30;99.90;;;;;;4809079;29;20063;-75
2021/07/05 04:23:16;;;;;;;3.78;2.03;;;16.10;99.90;;;;;;4806776;29;20050;-76
2021/07/05 04:25:43;;;;;;;4.45;1.83;;;16.00;99.90;;;;;;4769546;29;20040;-76
2021/07/05 04:28:10;;;;;;;10.52;1.98;;;15.80;99.90;;;;;;4800351;29;20047;-76
2021/07/05 04:30:36;;;;;;;2.67;0.98;;;15.70;99.90;;;;;;4785734;29;20050;-77
2021/07/05 04:33:04;;;;;;;4.90;1.40;;;15.50;99.90;;;;;;4787472;29;20058;-75
2021/07/05 04:35:31;;;;;;;2.40;0.90;;;15.40;99.90;;;;;;4804482;29;20043;-75
2021/07/05 04:38:00;;;;;;;3.92;1.60;;;15.40;99.90;;;;;;4786413;29;20141;-76
2021/07/05 04:40:29;;;;;;;1.90;1.00;;;15.30;99.90;;;;;;4792879;29;20041;-75
2021/07/05 04:42:56;;;;;;;3.05;1.00;;;15.30;99.90;;;;;;4790507;29;20053;-75
2021/07/05 04:45:26;;;;;;;2.97;1.00;;;15.20;99.90;;;;;;4785885;29;20422;-75
2021/07/05 04:47:53;;;;;;;5.43;1.52;;;15.20;99.90;;;;;;4805974;29;20042;-75
2021/07/05 04:50:20;;;;;;;5.10;1.38;;;15.20;99.90;;;;;;4788323;29;20142;-75
2021/07/05 04:52:47;;;;;;;4.65;1.00;;;15.20;99.90;;;;;;4789753;29;20062;-75
2021/07/05 04:55:16;;;;;;;4.03;1.13;;;15.20;99.90;;;;;;4758444;29;20077;-75
2021/07/05 04:57:43;;;;;;;4.93;0.90;;;15.20;99.90;;;;;;4792344;29;20047;-75
2021/07/05 05:00:32;;;;;;;4.00;0.90;;;15.20;99.90;;;;;;4774400;29;20494;-75
2021/07/05 05:03:03;;;;;;;2.72;1.00;;;15.20;99.90;;;;;;4789152;29;20039;-75
2021/07/05 05:05:31;;;;;;;3.77;1.30;;;15.20;99.90;;;;;;4802592;29;20117;-75
2021/07/05 05:07:58;;;;;;;2.45;0.95;;;15.20;99.90;;;;;;4805165;29;20494;-75
2021/07/05 05:10:25;;;;;;;4.13;1.33;;;15.20;99.90;;;;;;4805622;29;20054;-75
2021/07/05 05:12:53;;;;;;;3.75;1.13;;;15.10;99.90;;;;;;4774817;29;20043;-75
2021/07/05 05:15:20;;;;;;;1.73;1.00;;;15.10;99.90;;;;;;4787704;29;20058;-75
2021/07/05 05:17:49;;;;;;;4.47;1.05;;;15.10;99.90;;;;;;4783515;29;20054;-75
2021/07/05 05:20:16;;;;;;;3.35;1.10;;;15.10;99.90;;;;;;4781869;29;20054;-75
2021/07/05 05:22:43;;;;;;;5.38;1.20;;;15.10;99.90;;;;;;4740057;29;20057;-75
2021/07/05 05:25:10;;;;;;;3.85;1.15;;;15.10;99.90;;;;;;4803842;29;20043;-75
2021/07/05 05:27:38;;;;;;;2.80;1.10;;;15.10;99.90;;;;;;4785633;29;20061;-75
2021/07/05 05:30:07;;;;;;;2.72;1.20;;;15.10;99.90;;;;;;4776096;29;20396;-75
2021/07/05 05:32:33;;;;;;;3.05;1.05;;;15.10;99.90;;;;;;4774815;29;20062;-75
2021/07/05 05:35:00;;;;;;;3.60;1.08;;;15.10;99.90;;;;;;4789462;29;20127;-75
2021/07/05 05:37:26;;;;;;;3.00;1.70;;;15.20;99.90;;;;;;4774064;29;20395;-76
2021/07/05 05:39:53;;;;;;;4.07;1.40;;;15.20;99.90;;;;;;4801706;29;20045;-75
2021/07/05 05:42:19;;;;;;;5.60;1.42;;;15.20;99.90;;;;;;4771764;29;20046;-75
2021/07/05 05:44:46;;;;;;;6.03;1.40;;;15.10;99.90;;;;;;4759249;29;20054;-75
2021/07/05 05:47:12;;;;;;;4.22;1.30;;;15.20;99.90;;;;;;4770036;29;20490;-76
2021/07/05 05:49:40;;;;;;;5.55;1.70;;;15.20;99.90;;;;;;4804088;29;20034;-75
2021/07/05 05:52:06;;;;;;;4.90;1.80;;;15.20;99.90;;;;;;4797694;29;20042;-75
2021/07/05 05:54:33;;;;;;;5.03;1.42;;;15.20;99.90;;;;;;4770127;29;20051;-75
2021/07/05 05:57:00;;;;;;;5.32;1.85;;;15.20;99.90;;;;;;4790199;29;20402;-75
2021/07/05 05:59:26;;;;;;;3.85;1.70;;;15.30;99.90;;;;;;4801107;29;20039;-75
2021/07/05 06:01:53;;;;;;;7.35;2.00;;;15.40;99.90;;;;;;4802694;29;20050;-75
2021/07/05 06:04:21;;;;;;;5.63;1.52;;;15.40;99.90;;;;;;4788232;29;20059;-76
2021/07/05 06:06:48;;;;;;;3.60;1.58;;;15.40;99.90;;;;;;4782367;29;20046;-75
2021/07/05 06:09:14;;;;;;;4.75;2.03;;;15.40;99.90;;;;;;4797241;29;20042;-75
2021/07/05 06:11:41;;;;;;;4.45;2.08;;;15.40;99.90;;;;;;4807752;29;20053;-75
2021/07/05 06:14:08;;;;;;;5.35;2.15;;;15.40;99.90;;;;;;4768354;29;20046;-75
2021/07/05 06:16:35;;;;;;;6.25;2.08;;;15.40;99.90;;;;;;4805678;29;20027;-75
2021/07/05 06:19:03;;;;;;;4.80;1.95;;;15.40;99.90;;;;;;4802786;29;20067;-75
2021/07/05 06:21:31;;;;;;;5.18;2.63;;;15.50;99.90;;;;;;4789253;29;20058;-75
2021/07/05 06:23:58;;;;;;;4.50;2.40;;;15.50;99.90;;;;;;4788038;29;20043;-75
2021/07/05 06:26:25;;;;;;;5.25;2.75;;;15.50;99.90;;;;;;4770561;29;20062;-74
2021/07/05 06:28:51;;;;;;;9.23;4.47;;;15.50;99.90;;;;;;4761205;29;20043;-74
2021/07/05 06:31:18;;;;;;;9.00;2.80;;;15.50;99.90;;;;;;4788594;29;20402;-75
2021/07/05 06:33:45;;;;;;;5.30;2.65;;;15.50;99.90;;;;;;4789889;29;20043;-75
2021/07/05 06:36:14;;;;;;;8.23;3.88;;;15.50;99.90;;;;;;4804237;29;20035;-75
2021/07/05 06:38:41;;;;;;;7.25;3.70;;;15.60;99.90;;;;;;4770384;29;20054;-75
2021/07/05 06:41:07;;;;;;;9.63;3.20;;;15.60;99.90;;;;;;4734093;29;20054;-75
2021/07/05 06:43:34;;;;;;;10.50;3.90;;;15.60;99.90;;;;;;4803546;29;20043;-75
2021/07/05 06:46:00;;;;;;;7.53;4.25;;;15.70;99.90;;;;;;4780500;29;20436;-75
2021/07/05 06:48:27;;;;;;;10.82;4.65;;;15.70;99.90;;;;;;4785476;29;20042;-75
2021/07/05 06:50:53;;;;;;;11.60;5.07;;;15.70;99.90;;;;;;4803123;29;20042;-76
2021/07/05 06:53:20;;;;;;;7.63;4.57;;;15.70;99.90;;;;;;4788988;29;20043;-76
2021/07/05 06:55:46;;;;;;;8.75;4.03;;;15.70;99.90;;;;;;4774085;29;20057;-75
2021/07/05 06:58:12;;;;;;;12.05;5.03;;;15.80;99.90;;;;;;4801475;29;20069;-76
2021/07/05 07:00:39;;;;;;;6.55;4.05;;;15.90;99.90;;;;;;4792153;29;20050;-76
2021/07/05 07:03:06;;;;;;;9.43;5.07;;;15.90;99.90;;;;;;4787976;29;20518;-76
2021/07/05 07:05:34;;;;;;;9.50;4.72;;;16.00;99.90;;;;;;4787791;29;20038;-76
2021/07/05 07:08:02;;;;;;;11.32;5.78;;;16.00;99.90;;;;;;4787617;29;20392;-76
2021/07/05 07:10:29;;;;;;;11.38;5.55;;;16.00;99.90;;;;;;4805108;29;20790;-76
2021/07/05 07:12:56;;;;;;;9.85;5.60;;;16.00;99.90;;;;;;4790168;29;20042;-76
2021/07/05 07:15:31;;;;;;;10.10;5.80;;;16.00;99.90;;;;;;4769421;29;20051;-76
2021/07/05 07:20:26;;;;;;;10.48;4.70;;;16.10;99.90;;;;;;4771959;29;20047;-75
2021/07/05 07:22:53;;;;;;;8.88;5.25;;;16.20;99.90;;;;;;4792132;29;20042;-76
2021/07/05 07:25:19;;;;;;;7.70;4.85;;;16.30;99.90;;;;;;4809727;29;20482;-76
2021/07/05 07:27:46;;;;;;;10.25;5.15;;;16.40;99.90;;;;;;4774456;29;20075;-76
2021/07/05 07:30:14;;;;;;;10.27;5.00;;;16.50;99.90;;;;;;4792528;29;20049;-76
2021/07/05 07:32:43;;;;;;;9.63;4.22;;;16.70;99.90;;;;;;4788149;29;20050;-76
2021/07/05 07:35:11;;;;;;;8.85;4.65;;;16.80;99.90;;;;;;4782052;29;20043;-76
2021/07/05 07:37:39;;;;;;;10.32;4.07;;;16.90;99.90;;;;;;4784056;29;20042;-75
2021/07/05 07:40:15;;;;;;;8.35;5.57;;;17.10;99.90;;;;;;4771744;29;20050;-76
2021/07/05 07:42:42;;;;;;;8.38;4.82;;;17.20;99.90;;;;;;4773650;29;20520;-76
2021/07/05 07:45:10;;;;;;;8.27;4.63;;;17.30;99.90;;;;;;4767876;29;20507;-75
2021/07/05 07:47:36;;;;;;;9.60;4.80;;;17.40;99.90;;;;;;4798674;29;20050;-76
2021/07/05 07:50:05;;;;;;;9.63;4.28;;;17.50;99.90;;;;;;4798302;29;20368;-76
2021/07/05 07:52:31;;;;;;;8.35;4.20;;;17.50;99.90;;;;;;4799927;29;20053;-76
2021/07/05 07:54:58;;;;;;;10.45;4.13;;;17.50;99.90;;;;;;4796582;29;20070;-74
2021/07/05 07:57:24;;;;;;;15.02;5.75;;;17.70;99.90;;;;;;4782497;29;20050;-75
2021/07/05 07:59:51;;;;;;;10.35;4.95;;;17.80;99.90;;;;;;4785153;29;20083;-75
2021/07/05 08:02:17;;;;;;;8.07;4.65;;;17.90;99.90;;;;;;4785609;29;20035;-74
2021/07/05 08:04:43;;;;;;;8.13;4.07;;;18.00;99.90;;;;;;4783842;29;20050;-75
2021/07/05 08:07:10;;;;;;;10.63;4.32;;;18.10;99.90;;;;;;4783014;29;20038;-75
2021/07/05 08:09:37;;;;;;;11.73;4.32;;;18.30;99.90;;;;;;4797021;29;20062;-75
2021/07/05 08:12:06;;;;;;;9.23;4.00;;;18.50;99.90;;;;;;4800826;29;20754;-75
2021/07/05 08:14:33;;;;;;;10.40;4.40;;;18.60;99.90;;;;;;4781217;29;20046;-75
2021/07/05 08:16:59;;;;;;;11.55;4.45;;;18.80;99.90;;;;;;4800125;29;20057;-75
2021/07/05 08:19:25;;;;;;;8.75;4.40;;;18.80;99.90;;;;;;4783334;29;20055;-75
2021/07/05 08:21:52;;;;;;;11.13;4.35;;;18.90;99.90;;;;;;4785399;29;20059;-75
2021/07/05 08:24:18;;;;;;;9.98;4.15;;;18.90;99.90;;;;;;4788388;29;20383;-76
2021/07/05 08:26:45;;;;;;;11.07;4.20;;;18.90;99.90;;;;;;4771686;29;20062;-74
2021/07/05 08:29:12;;;;;;;9.02;4.60;;;18.90;99.90;;;;;;4799252;29;20043;-74
2021/07/05 08:31:39;;;;;;;7.97;3.67;;;18.80;99.90;;;;;;4770128;29;20047;-74
2021/07/05 08:34:06;;;;;;;10.50;4.28;;;18.80;99.90;;;;;;4784710;29;20046;-73
2021/07/05 08:36:33;;;;;;;11.60;4.53;;;18.70;99.90;;;;;;4783004;29;20042;-74
2021/07/05 08:38:59;;;;;;;9.57;3.50;;;18.70;99.90;;;;;;4750755;29;20055;-75
2021/07/05 08:41:25;;;;;;;12.80;4.30;;;18.70;99.90;;;;;;4784750;29;20039;-75
2021/07/05 08:43:54;;;;;;;9.80;4.03;;;18.80;99.90;;;;;;4800688;29;20050;-75
2021/07/05 08:46:21;;;;;;;11.45;3.63;;;18.90;99.90;;;;;;4766008;29;20045;-74
2021/07/05 08:48:48;;;;;;;8.52;4.03;;;19.00;99.90;;;;;;4776900;29;20043;-74
2021/07/05 08:51:19;;;;;;;9.43;3.40;;;19.10;99.90;;;;;;4787137;29;20057;-74
2021/07/05 08:53:47;;;;;;;10.02;3.65;;;19.10;99.90;;;;;;4782698;29;20411;-74
2021/07/05 08:56:14;;;;;;;9.52;3.92;;;19.10;99.90;;;;;;4802146;29;20042;-74
2021/07/05 08:58:42;;;;;;;9.75;3.70;;;19.10;99.90;;;;;;4754703;29;20059;-74
2021/07/05 09:01:12;;;;;;;8.75;2.80;;;19.10;99.90;;;;;;4803522;29;20046;-74
2021/07/05 09:03:38;;;;;;;10.73;3.53;;;19.20;99.90;;;;;;4791052;29;20042;-75
2021/07/05 09:06:17;;;;;;;7.18;3.35;;;19.20;99.90;;;;;;4798928;29;20043;-75
2021/07/05 09:09:05;;;;;;;9.45;2.45;;;19.30;99.90;;;;;;4798168;29;20035;-75
2021/07/05 09:11:47;;;;;;;7.43;2.72;;;19.30;99.90;;;;;;4757088;29;20087;-75
2021/07/05 09:14:21;;;;;;;8.05;3.20;;;19.40;99.90;;;;;;4760982;29;20054;-76
2021/07/05 09:16:50;;;;;;;10.07;3.88;;;19.50;99.90;;;;;;4802891;29;20041;-75
2021/07/05 09:19:24;;;;;;;8.57;4.32;;;19.50;99.90;;;;;;4798738;29;20041;-76
2021/07/05 09:22:03;;;;;;;4.93;2.53;;;19.60;99.90;;;;;;4804687;29;20069;-75
2021/07/05 09:24:37;;;;;;;9.23;4.30;;;19.90;99.90;;;;;;4788729;29;20034;-75
2021/07/05 09:27:23;;;;;;;9.77;3.28;;;20.00;99.90;;;;;;4804534;29;20035;-76
2021/07/05 09:29:50;;;;;;;5.20;2.30;;;20.30;99.90;;;;;;4799806;29;20031;-75
2021/07/05 09:32:23;;;;;;;7.57;2.10;;;20.50;99.90;;;;;;4758071;29;20489;-74
2021/07/05 09:34:50;;;;;;;9.15;3.15;;;20.90;99.90;;;;;;4784646;29;20043;-76
2021/07/05 09:37:22;;;;;;;5.18;2.53;;;21.10;99.90;;;;;;4782899;29;20043;-76
2021/07/05 09:40:02;;;;;;;7.53;2.15;;;21.10;99.80;;;;;;4787258;29;20042;-76
2021/07/05 09:42:32;;;;;;;6.30;2.08;;;21.10;99.00;;;;;;4800141;29;20038;-76
2021/07/05 09:45:00;;;;;;;7.05;2.30;;;21.10;99.40;;;;;;4788110;29;20051;-75
2021/07/05 09:47:27;;;;;;;9.13;3.75;;;21.10;99.70;;;;;;4798112;29;20053;-76
2021/07/05 09:49:55;;;;;;;7.78;2.60;;;21.10;99.80;;;;;;4782557;29;20039;-77
2021/07/05 09:52:26;;;;;;;5.82;2.35;;;21.10;99.60;;;;;;4787805;29;20066;-76
2021/07/05 09:54:58;;;;;;;4.35;1.85;;;21.20;99.40;;;;;;4783840;29;20046;-76
2021/07/05 09:57:48;;;;;;;;;;;21.20;98.80;;;;;;4803680;29;21187;-76
2021/07/05 10:00:21;;;;;;;8.30;2.58;;;21.30;98.50;;;;;;4774134;29;19928;-76
2021/07/05 10:03:03;;;;;;;8.10;2.28;;;21.30;98.30;;;;;;4770573;29;20049;-74
2021/07/05 10:05:46;;;;;;;9.17;2.13;;;21.20;98.10;;;;;;4785406;29;20042;-75
2021/07/05 10:08:16;;;;;;;4.53;1.75;;;21.30;97.90;;;;;;4802323;29;20293;-75
2021/07/05 10:10:45;;;;;;;3.65;1.48;;;21.40;98.00;;;;;;4806235;29;20038;-75
2021/07/05 10:13:16;;;;;;;4.13;1.23;;;21.50;97.60;;;;;;4801653;29;20562;-75
2021/07/05 10:15:43;;;;;;;7.00;1.80;;;21.50;97.70;;;;;;4803188;29;20527;-75
2021/07/05 10:18:10;;;;;;;5.82;1.58;;;21.60;97.40;;;;;;4758239;29;20303;-75
2021/07/05 10:20:42;;;;;;;4.63;1.60;;;21.60;96.90;;;;;;4781417;29;20561;-75
2021/07/05 10:23:11;;;;;;;9.90;2.00;;;21.60;96.90;;;;;;4785980;29;20099;-74
2021/07/05 10:25:41;;;;;;;10.32;2.10;;;21.70;96.80;;;;;;4781438;29;20046;-74
2021/07/05 10:28:08;;;;;;;4.78;1.48;;;21.90;96.10;;;;;;4780136;29;20042;-76
2021/07/05 10:30:35;;;;;;;6.10;2.28;;;21.90;96.10;;;;;;4784457;29;20053;-75
2021/07/05 10:33:03;;;;;;;4.53;1.15;;;21.90;95.80;;;;;;4785142;29;20046;-76
2021/07/05 10:35:41;;;;;;;6.65;1.95;;;21.90;95.10;;;;;;4784475;29;20561;-75
2021/07/05 10:38:19;;;;;;;5.57;1.80;;;21.90;95.60;;;;;;4784689;29;20054;-74
2021/07/05 10:40:53;;;;;;;5.90;1.95;;;22.00;95.90;;;;;;4807313;29;20047;-74
2021/07/05 10:43:43;;;;;;;7.03;2.30;;;22.10;96.10;;;;;;4773511;29;20074;-75
2021/07/05 10:46:09;;;;;;;7.80;2.05;;;22.10;95.90;;;;;;4785228;29;20399;-76
2021/07/05 10:48:40;;;;;;;8.45;1.65;;;22.00;96.00;;;;;;4804574;29;20057;-73
2021/07/05 10:51:11;;;;;;;6.88;1.80;;;21.90;95.50;;;;;;4784621;29;20038;-74
2021/07/05 10:53:44;;;;;;;5.35;1.60;;;21.90;95.50;;;;;;4785737;29;20055;-74
2021/07/05 10:56:37;;;;;;;4.85;1.55;;;21.80;95.60;;;;;;4803696;29;20035;-74
2021/07/05 10:59:13;;;;;;;5.00;1.25;;;21.90;95.90;;;;;;4801959;29;20042;-75
2021/07/05 11:01:48;;;;;;;5.20;1.40;;;22.00;96.20;;;;;;4788187;29;20288;-75
2021/07/05 11:04:19;;;;;;;4.57;1.08;;;22.10;95.80;;;;;;4799468;29;20036;-75
2021/07/05 11:06:46;;;;;;;5.40;1.98;;;22.20;95.40;;;;;;4798698;29;20031;-75
2021/07/05 11:09:18;;;;;;;3.50;0.90;;;22.20;95.40;;;;;;4782773;29;20065;-75
2021/07/05 11:11:51;;;;;;;2.97;1.30;;;22.30;95.20;;;;;;4802718;29;20034;-75
2021/07/05 11:14:20;;;;;;;4.93;1.83;;;22.30;95.00;;;;;;4802323;29;20042;-74
2021/07/05 11:17:09;;;;;;;6.05;1.70;;;22.40;94.60;;;;;;4794568;29;20055;-74
2021/07/05 11:19:45;;;;;;;5.57;1.60;;;22.40;93.90;;;;;;4802444;29;20518;-75
2021/07/05 11:22:23;;;;;;;6.97;1.40;;;22.40;93.90;;;;;;4770910;29;20416;-74
2021/07/05 11:25:21;;;;;;;7.53;1.65;;;22.30;94.20;;;;;;4788291;29;20039;-75
2021/07/05 11:27:53;;;;;;;8.27;1.40;;;22.30;94.60;;;;;;4786580;29;20051;-75
2021/07/05 11:30:27;;;;;;;4.50;1.27;;;22.20;94.00;;;;;;4790343;29;20077;-74
2021/07/05 11:33:11;;;;;;;5.35;1.70;;;22.20;94.10;;;;;;4788506;29;20043;-74
2021/07/05 11:35:39;;;;;;;5.25;1.48;;;22.20;93.80;;;;;;4770931;29;20047;-74
2021/07/05 11:38:31;;;;;;;4.13;1.40;;;22.20;93.50;;;;;;4784602;29;20503;-74
2021/07/05 11:41:12;;;;;;;3.25;1.33;;;22.40;93.50;;;;;;4789824;29;20056;-74
2021/07/05 11:43:43;;;;;;;3.67;0.90;;;22.40;93.40;;;;;;4790687;29;20518;-74
2021/07/05 11:46:14;;;;;;;4.07;1.20;;;22.50;93.90;;;;;;4773183;29;20407;-73
2021/07/05 11:48:40;;;;;;;4.68;1.30;;;22.60;93.20;;;;;;4771084;29;20388;-74
2021/07/05 11:51:38;;;;;;;4.97;1.50;;;22.60;93.20;;;;;;4788438;29;20054;-73
2021/07/05 11:54:06;;;;;;;4.22;1.60;;;22.50;93.10;;;;;;4788674;29;20046;-73
2021/07/05 11:56:40;;;;;;;7.32;1.80;;;22.30;93.30;;;;;;4771488;29;20039;-74
2021/07/05 11:59:18;;;;;;;4.72;1.80;;;21.90;93.70;;;;;;4754750;29;20055;-74
2021/07/05 12:01:45;;;;;;;5.90;2.10;;;21.60;94.50;;;;;;4788704;29;20051;-73
2021/07/05 12:04:12;;;;;;;4.90;2.47;;;21.10;95.90;;;;;;4787815;29;20035;-72
2021/07/05 12:06:48;;;;;;;7.03;2.88;;;20.40;97.20;;;;;;4750028;30;20488;-72
2021/07/05 12:09:16;;;;;;;5.88;2.38;;;19.70;99.00;;;;;;4767804;29;20039;-72
2021/07/05 12:11:45;;;;;;;5.35;2.85;;;19.20;99.90;;;;;;4782097;29;20094;-73
2021/07/05 12:14:15;;;;;;;4.57;2.55;;;18.90;99.90;;;;;;4780915;29;20487;-73
2021/07/05 12:16:45;;;;;;;5.43;2.58;;;18.80;99.90;;;;;;4782058;29;20039;-73
2021/07/05 12:19:13;;;;;;;4.78;3.28;;;18.80;99.90;;;;;;4783397;29;20589;-72
2021/07/05 12:22:00;;;;;;;10.13;4.47;;;19.10;99.90;;;;;;4786917;29;20082;-72
2021/07/05 12:24:29;;;;;;;6.97;2.58;;;19.40;99.90;;;;;;4787889;29;20710;-72
2021/07/05 12:26:59;;;;;;;5.57;3.03;;;19.80;99.90;;;;;;4804874;29;20051;-72
2021/07/05 12:29:30;;;;;;;3.95;2.20;;;20.10;99.90;;;;;;4804078;29;20031;-72
2021/07/05 12:32:00;;;;;;;5.90;2.08;;;20.40;99.90;;;;;;4807048;29;20038;-72
2021/07/05 12:34:44;;;;;;;3.92;1.75;;;20.50;99.90;;;;;;4803653;29;20034;-72
2021/07/05 12:37:25;;;;;;;4.93;1.95;;;20.60;99.90;;;;;;4799433;29;20043;-72
2021/07/05 12:39:51;;;;;;;5.20;1.80;;;20.80;99.90;;;;;;4788996;29;20046;-72
2021/07/05 12:42:37;;;;;;;5.97;1.80;;;21.20;99.90;;;;;;4807632;29;20141;-73
2021/07/05 12:45:08;;;;;;;3.85;1.52;;;21.80;99.90;;;;;;4789108;29;20039;-73
2021/07/05 12:47:55;;;;;;;3.17;1.25;;;22.40;99.90;;;;;;4803644;29;20030;-74
2021/07/05 12:50:55;;;;;;;3.53;1.33;;;23.20;99.90;;;;;;4787068;29;20049;-74
2021/07/05 12:53:41;;;;;;;5.25;1.60;;;23.40;98.90;;;;;;4801949;29;20062;-74
2021/07/05 12:56:15;;;;;;;8.50;4.43;;;23.20;98.20;;;;;;4786064;29;20074;-75
2021/07/05 12:58:42;;;;;;;4.95;2.10;;;23.10;97.00;;;;;;4801367;29;20039;-75